Time;durP1;ratioP1;P1;durP2;ratioP2;P2;SDS_P1;SDS_P2;PMS_P1;PMS_P2;Temp;Humidity;BMP_temperature;BMP_pressure;BME280_temperature;BME280_humidity;BME280_pressure;Samples;Min_cycle;Max_cycle;Signal;HPM_P1;HPM_P2
2022/04/18 00:02:25;;;;;;;35.80;17.40;;;;;;;0.58;65.36;97518.37;1919790;74;25759;-73
2022/04/18 00:04:52;;;;;;;35.63;17.00;;;;;;;0.56;65.43;97520.82;1920021;74;25700;-73
2022/04/18 00:07:18;;;;;;;30.97;15.85;;;;;;;0.52;65.55;97518.94;1919638;74;27508;-75
2022/04/18 00:09:45;;;;;;;29.42;16.07;;;;;;;0.47;65.61;97524.36;1919641;74;25748;-71
2022/04/18 00:12:12;;;;;;;34.08;16.37;;;;;;;0.38;65.69;97514.58;1919501;74;25642;-72
2022/04/18 00:14:38;;;;;;;32.88;19.17;;;;;;;0.29;65.75;97523.77;1919732;74;25744;-73
2022/04/18 00:17:09;;;;;;;39.58;18.62;;;;;;;0.26;65.92;97517.91;1919937;74;25725;-74
2022/04/18 00:19:33;;;;;;;39.53;20.15;;;;;;;0.16;66.00;97528.56;1915184;74;27474;-72
2022/04/18 00:22:00;;;;;;;36.00;18.50;;;;;;;0.07;66.07;97514.83;1917219;74;25775;-71
2022/04/18 00:24:26;;;;;;;35.95;17.37;;;;;;;0.07;66.30;97516.64;1920758;74;25755;-72
2022/04/18 00:26:53;;;;;;;37.88;17.32;;;;;;;0.08;66.26;97511.20;1935056;74;25704;-72
2022/04/18 00:29:20;;;;;;;41.18;17.45;;;;;;;0.07;66.24;97514.83;1935135;74;25638;-73
2022/04/18 00:31:46;;;;;;;34.40;17.10;;;;;;;0.05;66.25;97510.15;1934999;74;28136;-73
2022/04/18 00:34:14;;;;;;;31.80;15.13;;;;;;;0.04;66.30;97511.13;1934854;74;25597;-73
2022/04/18 00:36:41;;;;;;;30.97;15.25;;;;;;;0.05;66.38;97503.52;1935092;74;25956;-73
2022/04/18 00:39:08;;;;;;;24.92;14.00;;;;;;;0.07;66.47;97504.70;1934451;74;25708;-73
2022/04/18 00:41:34;;;;;;;28.75;14.40;;;;;;;0.02;66.44;97497.16;1935041;74;25688;-72
2022/04/18 00:44:02;;;;;;;28.20;15.03;;;;;;;-0.05;66.34;97494.74;1934963;74;27986;-73
2022/04/18 00:46:29;;;;;;;27.40;14.33;;;;;;;-0.09;66.42;97494.19;1934836;74;25769;-75
2022/04/18 00:48:55;;;;;;;27.93;14.30;;;;;;;-0.13;66.45;97488.00;1934760;74;25648;-73
2022/04/18 00:51:26;;;;;;;27.65;15.53;;;;;;;-0.14;66.54;97488.97;1934549;74;25648;-72
2022/04/18 00:53:55;;;;;;;27.15;14.03;;;;;;;-0.15;66.50;97481.50;1909765;74;26039;-69
2022/04/18 00:56:22;;;;;;;30.17;14.30;;;;;;;-0.12;66.58;97480.39;1909782;75;27338;-70
2022/04/18 00:58:49;;;;;;;28.25;13.48;;;;;;;-0.13;66.59;97479.55;1909613;75;25993;-70
2022/04/18 01:01:17;;;;;;;26.48;14.33;;;;;;;-0.15;66.56;97476.69;1909817;75;25752;-71
2022/04/18 01:03:45;;;;;;;27.82;14.87;;;;;;;-0.16;66.62;97471.03;1909735;75;25718;-69
2022/04/18 01:06:14;;;;;;;30.25;15.88;;;;;;;-0.17;66.70;97473.33;1909757;75;26486;-70
2022/04/18 01:08:43;;;;;;;30.80;15.43;;;;;;;-0.20;66.74;97465.66;1909830;75;27351;-70
2022/04/18 01:11:10;;;;;;;24.77;13.40;;;;;;;-0.22;66.69;97464.95;1909759;75;25474;-70
2022/04/18 01:13:42;;;;;;;23.60;14.23;;;;;;;-0.24;66.85;97458.98;1909902;75;25754;-72
2022/04/18 01:16:09;;;;;;;19.23;10.20;;;;;;;-0.24;66.83;97465.09;1910092;75;26032;-71
2022/04/18 01:18:36;;;;;;;26.35;13.08;;;;;;;-0.24;66.85;97462.95;1910026;75;25721;-70
2022/04/18 01:21:05;;;;;;;25.40;12.68;;;;;;;-0.25;66.83;97459.95;1909642;75;27537;-70
2022/04/18 01:23:32;;;;;;;19.77;11.97;;;;;;;-0.25;66.87;97452.00;1909582;75;25776;-70
2022/04/18 01:29:00;;;;;;;28.67;14.85;;;;;;;-0.29;66.88;97461.20;1909783;75;25577;-70
2022/04/18 01:31:34;;;;;;;32.40;16.02;;;;;;;-0.33;66.89;97453.17;1910180;75;25238;-70
2022/04/18 01:34:02;;;;;;;34.63;16.10;;;;;;;-0.38;66.89;97450.97;1841681;77;28275;-70
2022/04/18 01:36:29;;;;;;;32.17;14.50;;;;;;;-0.41;66.93;97448.59;1841268;77;25769;-70
2022/04/18 01:38:56;;;;;;;30.52;13.78;;;;;;;-0.42;67.03;97445.11;1841207;77;25731;-71
2022/04/18 01:41:23;;;;;;;27.77;12.90;;;;;;;-0.43;67.00;97439.45;1841535;77;25919;-73
2022/04/18 01:43:50;;;;;;;26.10;12.78;;;;;;;-0.48;66.96;97440.35;1841592;77;25858;-70
2022/04/18 01:46:18;;;;;;;30.05;14.07;;;;;;;-0.53;67.00;97437.31;1841526;77;27351;-73
2022/04/18 01:48:47;;;;;;;28.07;13.10;;;;;;;-0.53;67.11;97443.94;1841670;77;25768;-71
2022/04/18 01:51:14;;;;;;;25.77;12.93;;;;;;;-0.56;67.11;97436.75;1827811;77;25772;-70
2022/04/18 01:53:40;;;;;;;27.02;12.10;;;;;;;-0.57;67.22;97435.07;1821505;78;25812;-70
2022/04/18 01:56:07;;;;;;;24.25;12.60;;;;;;;-0.57;67.36;97432.42;1821649;78;25701;-70
2022/04/18 01:58:33;;;;;;;20.52;11.30;;;;;;;-0.58;67.41;97435.56;1821386;78;28217;-70
2022/04/18 02:01:00;;;;;;;22.82;11.88;;;;;;;-0.57;67.48;97424.47;1821452;78;25741;-70
2022/04/18 02:03:26;;;;;;;23.32;12.45;;;;;;;-0.55;67.51;97422.52;1821483;78;25738;-69
2022/04/18 02:05:55;;;;;;;20.95;11.78;;;;;;;-0.57;67.58;97421.33;1821662;78;25621;-71
2022/04/18 02:08:23;;;;;;;26.20;13.85;;;;;;;-0.66;67.55;97412.06;1821354;78;25749;-72
2022/04/18 02:10:49;;;;;;;25.23;13.55;;;;;;;-0.70;67.77;97404.88;1821485;78;27537;-70
2022/04/18 02:13:16;;;;;;;25.32;12.75;;;;;;;-0.66;67.78;97402.78;1821382;78;25428;-72
2022/04/18 02:15:43;;;;;;;25.10;13.13;;;;;;;-0.66;67.83;97395.67;1821507;78;25740;-70
2022/04/18 02:18:09;;;;;;;25.68;12.60;;;;;;;-0.64;67.78;97394.20;1821497;78;25688;-71
2022/04/18 02:20:36;;;;;;;22.45;12.23;;;;;;;-0.64;67.79;97399.02;1821420;78;25856;-70
2022/04/18 02:23:03;;;;;;;22.27;12.28;;;;;;;-0.64;67.80;97400.34;1821039;77;27340;-70
2022/04/18 02:25:30;;;;;;;30.95;15.65;;;;;;;-0.65;67.88;97389.88;1821230;78;25752;-70
2022/04/18 02:27:58;;;;;;;28.65;15.08;;;;;;;-0.66;68.01;97383.74;1821473;78;25797;-72
2022/04/18 02:30:24;;;;;;;24.12;13.85;;;;;;;-0.65;68.08;97389.39;1856601;74;25369;-72
2022/04/18 02:32:51;;;;;;;23.05;13.05;;;;;;;-0.64;68.11;97384.44;1935131;74;25628;-72
2022/04/18 02:35:21;;;;;;;22.27;12.82;;;;;;;-0.65;68.17;97376.14;1935089;74;28156;-72
2022/04/18 02:37:49;;;;;;;20.65;12.47;;;;;;;-0.61;68.27;97378.86;1922169;74;26084;-70
2022/04/18 02:40:16;;;;;;;25.90;13.78;;;;;;;-0.56;68.33;97381.91;1922560;74;26567;-69
2022/04/18 02:42:43;;;;;;;22.93;15.03;;;;;;;-0.51;68.32;97384.14;1922831;74;26365;-70
2022/04/18 02:45:12;;;;;;;24.98;15.03;;;;;;;-0.49;68.29;97387.48;1922615;74;25780;-70
2022/04/18 02:47:39;;;;;;;27.90;15.60;;;;;;;-0.49;68.27;97383.02;1922702;74;27432;-69
2022/04/18 02:50:08;;;;;;;27.48;15.05;;;;;;;-0.47;68.27;97378.39;1922499;74;25856;-70
2022/04/18 02:52:34;;;;;;;24.37;13.58;;;;;;;-0.43;68.43;97378.45;1922639;74;26744;-70
2022/04/18 02:55:02;;;;;;;23.62;13.55;;;;;;;-0.42;68.51;97389.91;1922368;74;26184;-70
2022/04/18 02:57:29;;;;;;;22.13;12.80;;;;;;;-0.50;68.78;97384.00;1922724;74;25737;-69
2022/04/18 02:59:55;;;;;;;23.60;12.78;;;;;;;-0.56;68.93;97387.70;1922492;74;27988;-70
2022/04/18 03:02:22;;;;;;;25.70;14.65;;;;;;;-0.60;69.05;97381.83;1922634;74;25737;-70
2022/04/18 03:04:48;;;;;;;21.93;13.32;;;;;;;-0.56;69.11;97391.67;1922723;74;25768;-71
2022/04/18 03:07:15;;;;;;;23.25;14.78;;;;;;;-0.55;69.10;97382.25;1922648;74;25537;-69
2022/04/18 03:09:41;;;;;;;28.80;14.70;;;;;;;-0.51;69.08;97373.05;1922897;74;25715;-69
2022/04/18 03:12:09;;;;;;;25.75;14.23;;;;;;;-0.48;69.13;97373.22;1922881;74;27332;-71
2022/04/18 03:14:36;;;;;;;21.57;13.00;;;;;;;-0.45;69.10;97373.78;1922493;74;25791;-71
2022/04/18 03:17:03;;;;;;;25.60;14.47;;;;;;;-0.41;69.16;97376.50;1922746;74;25780;-69
2022/04/18 03:19:30;;;;;;;22.50;14.43;;;;;;;-0.39;69.16;97373.71;1922581;74;25367;-70
2022/04/18 03:21:57;;;;;;;27.58;15.08;;;;;;;-0.36;69.24;97375.56;1922406;74;26347;-70
2022/04/18 03:24:24;;;;;;;25.37;14.90;;;;;;;-0.33;69.25;97364.33;1922402;74;28225;-70
2022/04/18 03:26:50;;;;;;;25.92;14.83;;;;;;;-0.31;69.23;97365.02;1922530;74;25665;-70
2022/04/18 03:29:17;;;;;;;26.80;15.23;;;;;;;-0.26;69.28;97366.27;1922631;74;25681;-71
2022/04/18 03:31:45;;;;;;;23.07;13.30;;;;;;;-0.22;69.27;97354.38;1922744;74;25726;-72
2022/04/18 03:34:11;;;;;;;24.55;12.93;;;;;;;-0.22;69.14;97353.05;1926610;74;25682;-71
2022/04/18 03:42:11;;;;;;;27.07;14.83;;;;;;;-0.14;69.27;97353.66;1935135;74;25661;-73
2022/04/18 03:44:45;;;;;;;33.67;17.15;;;;;;;-0.14;69.23;97339.07;1934923;74;26157;-71
2022/04/18 03:47:15;;;;;;;32.40;14.75;;;;;;;-0.09;69.18;97343.42;1922635;74;25218;-70
2022/04/18 03:49:42;;;;;;;30.82;14.38;;;;;;;-0.05;69.03;97350.13;1922766;74;27430;-70
2022/04/18 03:52:10;;;;;;;33.85;17.30;;;;;;;-0.01;68.94;97336.92;1922702;74;25847;-69
2022/04/18 03:54:36;;;;;;;33.58;17.35;;;;;;;-0.06;68.96;97339.16;1922741;74;26449;-69
2022/04/18 03:57:03;;;;;;;37.28;17.70;;;;;;;-0.09;68.97;97342.10;1922839;74;25718;-72
2022/04/18 03:59:29;;;;;;;35.65;18.73;;;;;;;-0.11;68.93;97337.42;1922922;74;25661;-70
2022/04/18 04:01:57;;;;;;;31.12;16.20;;;;;;;-0.14;69.00;97335.09;1922844;74;27377;-69
2022/04/18 04:04:23;;;;;;;33.90;17.73;;;;;;;-0.15;69.06;97337.39;1922605;74;25756;-70
2022/04/18 04:06:50;;;;;;;35.73;20.88;;;;;;;-0.15;69.12;97332.09;1922941;74;25715;-73
2022/04/18 04:09:17;;;;;;;64.97;33.70;;;;;;;-0.14;69.17;97331.11;1922810;74;25509;-72
2022/04/18 04:11:43;;;;;;;56.77;32.58;;;;;;;-0.13;69.21;97334.95;1922895;74;25698;-70
2022/04/18 04:14:10;;;;;;;55.30;31.30;;;;;;;-0.11;69.24;97341.41;1922948;74;27386;-70
2022/04/18 04:16:39;;;;;;;49.38;28.00;;;;;;;-0.10;69.27;97348.39;1922904;74;25795;-71
2022/04/18 04:19:07;;;;;;;59.63;28.75;;;;;;;-0.10;69.34;97343.91;1922590;74;25744;-70
2022/04/18 04:21:35;;;;;;;53.40;27.00;;;;;;;-0.11;69.43;97338.75;1922711;74;25369;-70
2022/04/18 04:24:02;;;;;;;43.50;22.32;;;;;;;-0.11;69.45;97336.94;1922424;74;25690;-71
2022/04/18 04:26:29;;;;;;;53.15;26.30;;;;;;;-0.04;69.45;97341.19;1923137;74;27423;-71
2022/04/18 04:28:55;;;;;;;42.65;21.95;;;;;;;0.02;69.53;97340.58;1922796;74;25697;-70
2022/04/18 04:31:22;;;;;;;36.17;19.62;;;;;;;0.06;69.57;97341.97;1922794;74;25849;-71
2022/04/18 04:33:48;;;;;;;39.75;19.62;;;;;;;0.05;69.67;97336.31;1922885;74;25826;-72
2022/04/18 04:36:18;;;;;;;41.65;21.05;;;;;;;0.08;69.70;97334.70;1922892;74;25645;-71
2022/04/18 04:38:44;;;;;;;44.63;20.97;;;;;;;0.14;69.78;97335.91;1922812;74;28103;-72
2022/04/18 04:41:11;;;;;;;41.53;20.88;;;;;;;0.17;69.80;97335.13;1922624;74;25736;-70
2022/04/18 04:43:39;;;;;;;37.40;19.05;;;;;;;0.21;69.85;97340.49;1927866;74;25787;-71
2022/04/18 04:46:06;;;;;;;45.55;19.17;;;;;;;0.25;69.93;97339.69;1934976;74;25533;-73
2022/04/18 04:48:33;;;;;;;40.40;19.37;;;;;;;0.27;69.95;97327.09;1935388;74;25725;-71
2022/04/18 04:50:59;;;;;;;36.65;19.12;;;;;;;0.26;69.82;97330.25;1934989;74;27438;-71
2022/04/18 04:53:26;;;;;;;36.95;18.95;;;;;;;0.28;69.85;97328.77;1935066;74;25760;-70
2022/04/18 04:55:53;;;;;;;41.23;19.32;;;;;;;0.29;69.93;97332.61;1935339;74;25684;-70
2022/04/18 04:58:19;;;;;;;38.67;19.98;;;;;;;0.28;70.04;97330.09;1935151;74;25461;-73
2022/04/18 05:00:46;;;;;;;37.20;19.40;;;;;;;0.28;70.06;97325.63;1935316;74;25167;-71
2022/04/18 05:03:13;;;;;;;36.70;19.10;;;;;;;0.33;69.96;97327.36;1935394;74;28119;-70
2022/04/18 05:05:41;;;;;;;32.25;19.10;;;;;;;0.40;69.91;97327.58;1935053;74;25685;-70
2022/04/18 05:08:08;;;;;;;36.83;19.57;;;;;;;0.44;69.86;97324.14;1935232;74;25724;-70
2022/04/18 05:10:34;;;;;;;35.60;20.15;;;;;;;0.47;69.98;97330.00;1935289;74;25692;-70
2022/04/18 05:13:01;;;;;;;48.10;23.47;;;;;;;0.51;69.98;97328.69;1935509;74;25598;-71
2022/04/18 05:15:28;;;;;;;47.45;24.25;;;;;;;0.55;70.01;97330.06;1935298;74;28160;-69
2022/04/18 05:17:54;;;;;;;53.05;25.85;;;;;;;0.59;70.04;97325.30;1935280;74;25661;-70
2022/04/18 05:20:21;;;;;;;51.40;24.65;;;;;;;0.60;70.03;97324.31;1935142;74;25637;-71
2022/04/18 05:22:50;;;;;;;45.88;23.12;;;;;;;0.64;69.98;97323.00;1935112;74;25579;-71
2022/04/18 05:25:16;;;;;;;45.50;22.30;;;;;;;0.66;69.95;97334.31;1935014;74;25486;-70
2022/04/18 05:27:43;;;;;;;38.92;20.27;;;;;;;0.70;70.00;97342.34;1935368;74;27233;-71
2022/04/18 05:30:10;;;;;;;40.38;23.07;;;;;;;0.72;70.00;97339.05;1935221;74;25755;-70
2022/04/18 05:32:37;;;;;;;48.28;27.00;;;;;;;0.75;70.05;97342.70;1935231;74;25609;-71
2022/04/18 05:35:06;;;;;;;50.85;28.83;;;;;;;0.78;70.10;97342.41;1935389;74;25725;-70
2022/04/18 05:37:33;;;;;;;39.35;24.00;;;;;;;0.80;70.19;97345.75;1935224;74;25361;-71
2022/04/18 05:39:59;;;;;;;32.85;18.77;;;;;;;0.82;70.26;97353.08;1935208;74;27450;-73
2022/04/18 05:42:26;;;;;;;25.30;16.20;;;;;;;0.83;70.28;97346.78;1934775;74;25852;-70
2022/04/18 05:44:53;;;;;;;26.07;16.25;;;;;;;0.86;70.44;97333.66;1935180;74;25604;-70
2022/04/18 05:47:19;;;;;;;22.55;14.33;;;;;;;0.89;70.57;97330.21;1934795;74;26518;-70
2022/04/18 05:49:46;;;;;;;34.35;19.85;;;;;;;0.95;70.63;97330.95;1935322;74;25577;-73
2022/04/18 05:52:15;;;;;;;34.78;20.72;;;;;;;0.95;70.84;97333.60;1935190;74;27329;-74
2022/04/18 05:54:41;;;;;;;38.23;20.88;;;;;;;0.91;70.84;97350.83;1935192;74;26078;-71
2022/04/18 05:57:08;;;;;;;33.63;21.10;;;;;;;0.81;70.78;97350.08;1935002;74;25618;-71
2022/04/18 05:59:34;;;;;;;37.33;20.48;;;;;;;0.69;70.92;97347.30;1935410;74;25749;-70
2022/04/18 06:02:01;;;;;;;28.87;18.40;;;;;;;0.68;71.13;97341.16;1935080;74;25419;-71
2022/04/18 06:04:28;;;;;;;33.50;18.82;;;;;;;0.66;71.04;97338.30;1935325;74;27475;-69
2022/04/18 06:06:54;;;;;;;32.90;19.75;;;;;;;0.67;71.28;97333.33;1935181;74;25697;-71
2022/04/18 06:09:21;;;;;;;32.60;20.70;;;;;;;0.69;71.46;97334.86;1935301;74;25708;-71
2022/04/18 06:11:47;;;;;;;31.73;19.82;;;;;;;0.74;71.49;97333.05;1935191;74;25691;-70
2022/04/18 06:14:14;;;;;;;28.30;18.32;;;;;;;0.81;71.55;97334.63;1935299;74;25650;-70
2022/04/18 06:16:41;;;;;;;29.70;18.92;;;;;;;0.85;71.56;97328.84;1935128;74;27322;-70
2022/04/18 06:19:07;;;;;;;30.52;18.77;;;;;;;0.90;71.58;97330.55;1935195;74;25688;-71
2022/04/18 06:21:34;;;;;;;27.80;17.90;;;;;;;1.00;71.66;97337.95;1935162;74;25645;-73
2022/04/18 06:24:01;;;;;;;31.05;18.42;;;;;;;1.12;71.68;97335.05;1935353;74;25720;-73
2022/04/18 06:26:27;;;;;;;32.20;18.25;;;;;;;1.29;71.72;97334.19;1935933;74;25368;-71
2022/04/18 06:28:54;;;;;;;28.30;17.95;;;;;;;1.38;71.81;97327.94;1935800;74;27956;-71
2022/04/18 06:31:20;;;;;;;29.48;17.75;;;;;;;1.41;71.97;97327.14;1935675;74;25637;-70
2022/04/18 06:33:47;;;;;;;30.05;16.82;;;;;;;1.44;72.12;97332.64;1935954;74;25667;-70
2022/04/18 06:36:13;;;;;;;26.12;16.00;;;;;;;1.49;71.96;97334.32;1935390;74;25703;-71
2022/04/18 06:38:40;;;;;;;29.85;19.10;;;;;;;1.56;72.00;97332.72;1935985;74;25178;-72
2022/04/18 06:41:08;;;;;;;31.40;18.95;;;;;;;1.65;72.05;97330.94;1936024;74;27307;-72
2022/04/18 06:43:35;;;;;;;26.07;17.65;;;;;;;1.72;72.03;97331.47;1935624;74;25610;-71
2022/04/18 06:46:02;;;;;;;24.90;16.65;;;;;;;1.78;72.00;97330.84;1936002;74;25827;-73
2022/04/18 06:48:28;;;;;;;24.32;16.55;;;;;;;1.89;72.01;97331.06;1905159;74;26291;-72
2022/04/18 06:50:55;;;;;;;31.05;21.02;;;;;;;2.01;71.91;97324.96;1935877;74;25586;-72
2022/04/18 06:53:22;;;;;;;36.03;20.35;;;;;;;2.12;71.81;97328.67;1935906;74;27369;-73
2022/04/18 06:58:23;;;;;;;28.30;17.10;;;;;;;2.34;71.53;97329.41;1920231;74;25776;-74
2022/04/18 07:00:50;;;;;;;28.25;16.82;;;;;;;2.48;71.33;97330.12;1919925;74;25822;-72
2022/04/18 07:03:17;;;;;;;25.52;15.85;;;;;;;2.63;71.32;97320.16;1919996;74;25728;-72
2022/04/18 07:05:44;;;;;;;26.73;15.13;;;;;;;2.70;71.14;97310.50;1920003;74;27405;-74
2022/04/18 07:08:11;;;;;;;23.40;14.98;;;;;;;2.76;71.17;97307.20;1919766;74;25705;-73
2022/04/18 07:10:37;;;;;;;27.55;17.20;;;;;;;2.90;71.04;97299.85;1919773;74;25775;-71
2022/04/18 07:13:04;;;;;;;32.78;17.65;;;;;;;3.03;71.00;97302.85;1920001;74;25873;-71
2022/04/18 07:15:32;;;;;;;29.72;18.05;;;;;;;3.17;71.05;97292.86;1920050;74;25863;-71
2022/04/18 07:18:01;;;;;;;32.48;20.05;;;;;;;3.30;70.99;97290.17;1919443;74;28216;-72
2022/04/18 07:20:29;;;;;;;36.90;21.42;;;;;;;3.40;70.80;97293.49;1919991;74;25713;-72
2022/04/18 07:22:56;;;;;;;28.65;19.32;;;;;;;3.43;70.85;97290.49;1919760;74;25884;-73
2022/04/18 07:25:23;;;;;;;22.70;14.95;;;;;;;3.56;70.91;97280.13;1919343;74;26523;-72
2022/04/18 07:27:49;;;;;;;29.57;17.15;;;;;;;3.72;70.61;97278.77;1919744;74;25241;-71
2022/04/18 07:30:16;;;;;;;24.30;16.32;;;;;;;3.87;70.37;97275.68;1919348;74;27457;-72
2022/04/18 07:32:44;;;;;;;25.68;17.95;;;;;;;4.03;70.06;97272.13;1919691;74;25677;-71
2022/04/18 07:35:12;;;;;;;18.27;12.25;;;;;;;4.16;69.88;97265.72;1926038;74;25697;-71
2022/04/18 07:40:16;;;;;;;25.37;14.73;;;;;;;4.67;69.29;97264.25;1834941;78;25456;-74
2022/04/18 07:42:43;;;;;;;21.57;13.72;;;;;;;5.11;68.96;97256.87;1834981;78;27447;-73
2022/04/18 07:45:10;;;;;;;24.37;14.90;;;;;;;5.42;68.74;97257.60;1834901;78;25641;-74
2022/04/18 07:47:36;;;;;;;22.07;14.50;;;;;;;5.79;68.19;97261.23;1835173;78;25727;-76
2022/04/18 07:50:04;;;;;;;19.82;12.58;;;;;;;6.12;67.88;97259.84;1834928;78;25739;-76
2022/04/18 07:52:30;;;;;;;18.82;12.63;;;;;;;6.48;67.12;97261.20;1834971;78;25700;-74
2022/04/18 07:54:57;;;;;;;20.90;13.68;;;;;;;6.86;67.31;97260.48;1834975;78;27414;-74
2022/04/18 07:57:23;;;;;;;21.48;12.78;;;;;;;7.21;66.38;97257.39;1835019;78;25708;-74
2022/04/18 07:59:50;;;;;;;20.68;13.78;;;;;;;7.47;65.09;97255.94;1834706;78;25769;-74
2022/04/18 08:02:18;;;;;;;19.92;13.50;;;;;;;7.49;65.07;97248.49;1834846;78;25775;-74
2022/04/18 08:04:44;;;;;;;21.05;13.30;;;;;;;7.84;64.55;97246.68;1834921;78;25468;-74
2022/04/18 08:07:11;;;;;;;23.65;14.45;;;;;;;8.33;63.96;97246.55;1834976;78;27319;-74
2022/04/18 08:09:37;;;;;;;19.57;12.53;;;;;;;8.75;63.37;97250.80;1834749;78;25682;-74
2022/04/18 08:12:06;;;;;;;19.32;12.88;;;;;;;9.17;62.62;97240.73;1834950;78;26025;-74
2022/04/18 08:14:33;;;;;;;17.27;11.83;;;;;;;9.65;61.87;97239.47;1834874;78;25685;-77
2022/04/18 08:17:00;;;;;;;18.98;12.47;;;;;;;9.98;60.27;97242.60;1882565;74;25671;-78
2022/04/18 08:19:26;;;;;;;17.32;12.53;;;;;;;9.89;60.28;97237.14;1938947;73;27542;-74
2022/04/18 08:21:53;;;;;;;20.35;13.35;;;;;;;9.87;60.09;97234.64;1938933;73;25668;-75
2022/04/18 08:24:20;;;;;;;19.05;12.90;;;;;;;9.52;59.31;97231.39;1936131;73;25720;-76
2022/04/18 08:26:47;;;;;;;18.35;12.23;;;;;;;9.24;59.36;97230.77;1934959;74;25695;-75
2022/04/18 08:29:14;;;;;;;16.93;12.00;;;;;;;9.12;59.61;97229.73;1935151;74;25685;-78
2022/04/18 08:31:40;;;;;;;19.60;11.97;;;;;;;8.91;59.13;97232.09;1935170;74;27560;-75
2022/04/18 08:34:07;;;;;;;19.17;12.03;;;;;;;8.28;58.79;97241.72;1935113;74;25595;-74
2022/04/18 08:36:34;;;;;;;19.42;12.30;;;;;;;8.04;59.26;97240.05;1935048;74;25670;-76
2022/04/18 08:39:01;;;;;;;19.10;11.00;;;;;;;7.84;59.38;97241.30;1934686;74;26603;-76
2022/04/18 08:41:33;;;;;;;18.85;10.85;;;;;;;7.70;59.40;97239.56;1935061;74;25714;-75
2022/04/18 08:44:02;;;;;;;14.80;9.70;;;;;;;7.61;59.04;97234.03;1930863;73;27407;-74
2022/04/18 08:46:29;;;;;;;15.63;10.03;;;;;;;7.51;58.92;97231.16;1899097;74;25444;-78
2022/04/18 08:54:28;;;;;;;17.40;11.97;;;;;;;8.15;58.91;97216.12;1934673;74;25182;-77
2022/04/18 08:56:56;;;;;;;12.70;10.20;;;;;;;8.84;58.58;97206.50;1935059;74;27359;-76
2022/04/18 08:59:23;;;;;;;13.32;9.00;;;;;;;8.99;57.77;97204.45;1935135;74;25392;-76
2022/04/18 09:01:52;;;;;;;12.93;7.97;;;;;;;8.88;57.00;97201.03;1935054;74;25391;-74
2022/04/18 09:04:20;;;;;;;15.72;9.50;;;;;;;8.67;57.21;97201.21;1935016;74;26321;-76
2022/04/18 09:06:47;;;;;;;17.60;11.22;;;;;;;8.55;56.85;97196.95;1908450;74;25771;-74
2022/04/18 09:09:17;;;;;;;16.15;10.90;;;;;;;8.42;57.06;97195.56;1908295;75;27408;-78
2022/04/18 09:11:46;;;;;;;14.80;10.72;;;;;;;8.36;56.95;97195.53;1908333;75;25685;-75
2022/04/18 09:14:15;;;;;;;14.25;9.30;;;;;;;8.32;56.89;97198.33;1908294;75;25772;-76
2022/04/18 09:16:43;;;;;;;14.98;9.83;;;;;;;8.21;56.79;97196.48;1908334;75;25852;-78
2022/04/18 09:19:13;;;;;;;16.20;11.40;;;;;;;7.95;56.69;97199.92;1908097;75;26028;-77
2022/04/18 09:22:01;;;;;;;13.25;9.95;;;;;;;7.67;57.24;97202.34;1806895;79;27494;-76
2022/04/18 09:24:32;;;;;;;25.10;13.93;;;;;;;7.50;57.43;97197.27;1806742;79;25756;-76
2022/04/18 09:27:06;;;;;;;19.75;13.20;;;;;;;7.51;57.88;97192.73;1714153;83;25770;-75
2022/04/18 09:29:38;;;;;;;23.80;12.78;;;;;;;7.63;58.11;97188.47;1697362;83;26535;-74
2022/04/18 09:32:12;;;;;;;20.92;12.10;;;;;;;8.04;58.69;97187.13;1691885;83;25719;-74
2022/04/18 09:34:40;;;;;;;15.10;9.40;;;;;;;8.37;58.19;97188.61;1683653;85;28191;-74
2022/04/18 09:37:18;;;;;;;11.68;7.83;;;;;;;8.56;57.27;97173.56;1685685;85;26122;-77
2022/04/18 09:39:53;;;;;;;9.75;6.92;;;;;;;8.52;55.97;97170.45;1669027;85;25844;-78
2022/04/18 09:42:24;;;;;;;10.78;6.90;;;;;;;8.44;55.97;97177.37;1667023;85;25851;-74
2022/04/18 09:44:51;;;;;;;10.55;7.30;;;;;;;8.34;54.99;97177.42;1655600;86;25830;-77
2022/04/18 09:47:23;;;;;;;11.93;7.58;;;;;;;8.10;55.34;97178.24;1655266;85;27553;-75
2022/04/18 09:49:53;;;;;;;15.70;9.93;;;;;;;7.92;55.04;97179.32;1655655;86;33519;-76
2022/04/18 09:52:21;;;;;;;11.78;8.53;;;;;;;7.70;55.56;97175.08;1618599;88;25839;-75
2022/04/18 09:54:53;;;;;;;11.00;6.53;;;;;;;7.59;55.78;97173.28;1618781;88;25929;-74
2022/04/18 09:57:24;;;;;;;;;;;;;;;7.62;55.17;97172.54;1594411;90;25767;-75
2022/04/18 09:59:52;;;;;;;8.33;5.10;;;;;;;7.61;53.97;97173.59;1618857;88;28105;-75
2022/04/18 10:02:19;;;;;;;8.25;5.78;;;;;;;7.57;54.29;97165.09;1591773;90;25802;-74
2022/04/18 10:04:47;;;;;;;10.82;6.65;;;;;;;7.69;54.80;97161.33;1626190;88;25923;-77
2022/04/18 10:07:15;;;;;;;8.58;5.85;;;;;;;7.85;54.67;97162.31;1612618;88;26496;-74
2022/04/18 10:09:43;;;;;;;6.60;5.50;;;;;;;7.89;54.33;97160.90;1661019;85;25788;-76
2022/04/18 10:12:12;;;;;;;9.78;5.90;;;;;;;7.92;53.68;97163.20;1661286;85;27419;-75
2022/04/18 10:14:42;;;;;;;8.10;5.58;;;;;;;7.81;53.23;97154.36;1661104;86;25787;-74
2022/04/18 10:17:12;;;;;;;7.47;5.00;;;;;;;7.82;53.51;97154.69;1661413;85;25786;-74
2022/04/18 10:20:37;;;;;;;8.50;6.17;;;;;;;7.79;53.00;97157.25;1661555;85;25667;-74
2022/04/18 10:23:24;;;;;;;6.72;4.72;;;;;;;7.82;53.32;97150.66;1668823;83;25757;-76
2022/04/18 10:26:28;;;;;;;6.67;4.65;;;;;;;7.91;53.17;97149.44;1756429;79;27386;-76
2022/04/18 10:28:56;;;;;;;6.15;4.30;;;;;;;7.97;52.57;97145.94;1830480;77;25735;-77
2022/04/18 10:31:28;;;;;;;6.72;4.17;;;;;;;7.98;52.25;97146.25;1839398;77;26825;-74
2022/04/18 10:33:59;;;;;;;7.97;5.10;;;;;;;8.01;51.92;97148.55;1782100;80;26489;-76
2022/04/18 10:39:07;;;;;;;7.15;4.83;;;;;;;8.15;51.19;97131.44;1659458;86;27280;-78
2022/04/18 10:41:45;;;;;;;6.35;4.15;;;;;;;8.26;51.17;97134.87;1629916;88;25782;-74
2022/04/18 10:44:15;;;;;;;8.15;5.00;;;;;;;8.30;50.66;97118.66;1664838;86;25846;-77
2022/04/18 10:46:53;;;;;;;7.35;5.35;;;;;;;8.38;50.43;97118.17;1664777;86;25804;-75
2022/04/18 10:49:23;;;;;;;7.42;5.70;;;;;;;8.45;50.73;97111.75;1606784;89;25826;-74
2022/04/18 10:51:53;;;;;;;7.72;5.22;;;;;;;8.54;50.58;97116.44;1606945;89;28405;-74
2022/04/18 10:54:25;;;;;;;6.75;4.83;;;;;;;8.59;50.21;97116.12;1606902;89;25831;-75
2022/04/18 10:57:11;;;;;;;7.28;5.03;;;;;;;8.61;50.50;97114.57;1606951;89;25835;-74
2022/04/18 10:59:39;;;;;;;9.53;5.42;;;;;;;8.64;50.10;97110.96;1603035;89;26384;-75
2022/04/18 11:02:07;;;;;;;8.13;4.97;;;;;;;8.65;49.91;97107.75;1601993;89;26737;-75
2022/04/18 11:07:12;;;;;;;8.23;6.08;;;;;;;9.10;51.00;97108.77;1591282;90;25758;-77
2022/04/18 11:09:45;;;;;;;9.58;5.60;;;;;;;9.67;51.03;97102.61;1589327;90;25381;-74
2022/04/18 11:12:13;;;;;;;;;;;;;;;10.09;50.39;97095.80;1580190;90;26358;-75
2022/04/18 11:14:51;;;;;;;8.08;5.10;;;;;;;10.44;50.12;97090.84;1592760;90;25877;-76
2022/04/18 11:17:31;;;;;;;9.35;5.12;;;;;;;10.76;49.37;97090.80;1592551;90;27639;-75
2022/04/18 11:20:18;;;;;;;6.45;4.80;;;;;;;11.19;48.18;97087.63;1592556;90;25885;-75
2022/04/18 11:22:50;;;;;;;9.03;5.12;;;;;;;11.78;48.04;97088.87;1592431;90;26083;-76
2022/04/18 11:25:17;;;;;;;7.35;4.60;;;;;;;12.06;47.54;97082.09;1567289;90;25780;-75
2022/04/18 11:27:46;;;;;;;9.00;5.10;;;;;;;11.98;46.91;97083.20;1614989;88;25779;-75
2022/04/18 11:30:15;;;;;;;5.78;4.33;;;;;;;11.79;45.85;97081.06;1605624;86;28250;-75
2022/04/18 11:32:46;;;;;;;6.05;4.33;;;;;;;11.49;45.29;97078.25;1674236;85;25840;-75
2022/04/18 11:35:14;;;;;;;7.60;4.65;;;;;;;11.28;45.48;97079.22;1645978;85;25417;-75
2022/04/18 11:37:46;;;;;;;7.72;4.95;;;;;;;11.10;45.14;97080.86;1711186;81;25812;-75
2022/04/18 11:40:16;;;;;;;6.17;4.33;;;;;;;10.87;45.05;97073.87;1723681;83;25870;-75
2022/04/18 11:42:45;;;;;;;6.65;4.80;;;;;;;10.67;44.40;97079.45;1754845;81;27366;-74
2022/04/18 11:45:24;;;;;;;7.42;4.70;;;;;;;10.33;44.53;97078.05;1727838;83;25615;-75
2022/04/18 11:47:51;;;;;;;7.70;5.30;;;;;;;10.10;44.50;97084.48;1753570;81;25745;-77
2022/04/18 11:50:22;;;;;;;7.75;4.80;;;;;;;9.89;45.16;97079.42;1711245;83;25728;-75
2022/04/18 11:52:48;;;;;;;8.55;5.42;;;;;;;9.81;45.48;97077.77;1711801;83;25691;-74
2022/04/18 11:55:17;;;;;;;9.13;5.60;;;;;;;9.73;45.82;97072.12;1754934;81;26870;-73
2022/04/18 11:57:47;;;;;;;6.78;5.15;;;;;;;9.66;45.15;97070.50;1719590;81;25724;-75